Time;durP1;ratioP1;P1;durP2;ratioP2;P2;SDS_P1;SDS_P2;PMS_P1;PMS_P2;Temp;Humidity;BMP_temperature;BMP_pressure;BME280_temperature;BME280_humidity;BME280_pressure;Samples;Min_cycle;Max_cycle;Signal;HPM_P1;HPM_P2
2023/10/19 00:00:44;;;;;;;16.35;11.63;;;8.20;99.90;;;;;;5053382;28;20041;-63
2023/10/19 00:03:11;;;;;;;17.38;12.18;;;8.20;99.90;;;;;;5053118;28;20093;-63
2023/10/19 00:05:38;;;;;;;17.20;10.98;;;8.20;99.90;;;;;;5052534;28;20049;-63
2023/10/19 00:08:07;;;;;;;21.25;13.15;;;8.20;99.90;;;;;;5053362;28;20113;-63
2023/10/19 00:10:36;;;;;;;18.75;12.13;;;8.20;99.90;;;;;;5053013;28;20076;-64
2023/10/19 00:13:04;;;;;;;18.25;11.85;;;8.20;99.90;;;;;;5036164;28;20486;-63
2023/10/19 00:15:35;;;;;;;19.38;13.13;;;8.20;99.90;;;;;;5053568;28;20051;-63
2023/10/19 00:18:20;;;;;;;19.92;13.02;;;8.20;99.90;;;;;;5053114;28;20049;-63
2023/10/19 00:23:13;;;;;;;21.40;13.93;;;8.20;99.90;;;;;;5072901;28;20052;-63
2023/10/19 00:25:42;;;;;;;20.67;13.32;;;8.20;99.90;;;;;;5072316;28;20048;-63
2023/10/19 00:28:08;;;;;;;20.55;14.05;;;8.20;99.90;;;;;;5064122;28;20064;-64
2023/10/19 00:30:37;;;;;;;19.15;12.70;;;8.20;99.90;;;;;;5068475;28;20069;-65
2023/10/19 00:33:03;;;;;;;20.98;12.85;;;8.10;99.90;;;;;;5066462;28;20078;-65
2023/10/19 00:35:34;;;;;;;19.75;12.85;;;8.10;99.90;;;;;;5072268;28;20408;-66
2023/10/19 00:40:52;;;;;;;22.57;13.73;;;8.10;99.90;;;;;;5071882;28;20404;-65
2023/10/19 00:43:36;;;;;;;20.70;13.70;;;8.10;99.90;;;;;;5073011;28;20039;-65
2023/10/19 00:46:09;;;;;;;20.95;14.07;;;8.10;99.90;;;;;;5055881;28;20111;-65
2023/10/19 00:48:36;;;;;;;20.85;12.90;;;8.10;99.90;;;;;;5071389;28;20052;-65
2023/10/19 00:53:48;;;;;;;22.73;14.70;;;8.10;99.90;;;;;;5051665;28;20049;-65
2023/10/19 00:56:17;;;;;;;22.23;13.75;;;8.10;99.90;;;;;;5051988;28;20041;-65
2023/10/19 00:58:47;;;;;;;24.20;15.75;;;8.10;99.90;;;;;;5053219;28;20037;-65
2023/10/19 01:01:15;;;;;;;20.40;15.25;;;8.10;99.90;;;;;;5051466;28;20041;-65
2023/10/19 01:03:40;;;;;;;23.48;15.38;;;8.10;99.90;;;;;;5051804;28;20041;-64
2023/10/19 01:06:12;;;;;;;19.23;14.85;;;8.10;99.90;;;;;;5051633;28;20493;-64
2023/10/19 01:08:42;;;;;;;22.08;14.48;;;8.10;99.90;;;;;;5051188;28;20048;-64
2023/10/19 01:11:11;;;;;;;23.52;15.98;;;8.10;99.90;;;;;;5033396;28;20045;-64
2023/10/19 01:13:38;;;;;;;25.58;16.42;;;8.10;99.90;;;;;;5050637;28;20048;-64
2023/10/19 01:16:04;;;;;;;23.83;17.45;;;8.10;99.90;;;;;;5051397;28;20120;-64
2023/10/19 01:18:33;;;;;;;23.73;15.90;;;8.10;99.90;;;;;;5051180;28;20051;-64
2023/10/19 01:21:04;;;;;;;22.35;15.32;;;8.10;99.90;;;;;;5071886;28;20040;-64
2023/10/19 01:23:30;;;;;;;25.52;15.60;;;8.10;99.90;;;;;;5053236;28;20059;-64
2023/10/19 01:25:59;;;;;;;23.83;15.63;;;8.10;99.90;;;;;;5051959;28;20049;-64
2023/10/19 01:28:52;;;;;;;22.38;15.13;;;8.20;99.90;;;;;;5053420;28;20102;-64
2023/10/19 01:33:55;;;;;;;24.00;15.40;;;8.10;99.90;;;;;;5074546;28;20497;-64
2023/10/19 01:38:47;;;;;;;20.67;15.70;;;8.20;99.90;;;;;;5052744;28;20289;-64
2023/10/19 01:41:15;;;;;;;22.38;16.05;;;8.20;99.90;;;;;;5052280;28;20036;-64
2023/10/19 01:43:44;;;;;;;22.10;16.17;;;8.20;99.90;;;;;;5050156;28;20076;-64
2023/10/19 01:46:11;;;;;;;23.30;16.30;;;8.10;99.90;;;;;;5052162;28;20115;-64
2023/10/19 01:48:40;;;;;;;24.00;17.27;;;8.10;99.90;;;;;;5051203;28;20057;-64
2023/10/19 01:51:10;;;;;;;24.33;15.80;;;8.20;99.90;;;;;;5070032;28;20516;-64
2023/10/19 01:53:39;;;;;;;24.70;16.48;;;8.20;99.90;;;;;;5054835;28;20103;-64
2023/10/19 01:56:05;;;;;;;22.48;16.95;;;8.20;99.90;;;;;;5051298;28;20044;-64
2023/10/19 01:58:36;;;;;;;22.45;16.15;;;8.20;99.90;;;;;;5051478;28;20486;-64
2023/10/19 02:01:06;;;;;;;22.02;16.30;;;8.20;99.90;;;;;;5051187;28;20051;-64
2023/10/19 02:03:32;;;;;;;20.25;14.68;;;8.20;99.90;;;;;;5050858;28;20494;-64
2023/10/19 02:05:59;;;;;;;22.85;15.70;;;8.30;99.90;;;;;;5050586;28;20053;-64
2023/10/19 02:08:26;;;;;;;22.65;15.65;;;8.20;99.90;;;;;;5050669;28;20053;-63
2023/10/19 02:10:53;;;;;;;22.60;15.07;;;8.20;99.90;;;;;;5052878;28;20041;-64
2023/10/19 02:13:21;;;;;;;22.27;15.50;;;8.20;99.90;;;;;;5069182;28;20087;-64
2023/10/19 02:15:46;;;;;;;23.65;15.55;;;8.20;99.90;;;;;;5062703;28;20124;-64
2023/10/19 02:18:12;;;;;;;23.15;16.00;;;8.20;99.90;;;;;;5050687;28;20112;-63
2023/10/19 02:20:41;;;;;;;18.42;13.88;;;8.30;99.90;;;;;;5053881;28;20500;-64
2023/10/19 02:23:07;;;;;;;18.85;15.02;;;8.30;99.90;;;;;;5071823;28;20059;-64
2023/10/19 02:25:36;;;;;;;21.98;14.93;;;8.30;99.90;;;;;;5070221;28;20041;-64
2023/10/19 02:28:06;;;;;;;22.60;15.02;;;8.20;99.90;;;;;;5070775;28;20037;-64
2023/10/19 02:30:33;;;;;;;20.48;14.48;;;8.20;99.90;;;;;;5068035;28;20405;-65
2023/10/19 02:33:00;;;;;;;18.73;13.57;;;8.20;99.90;;;;;;5050326;28;20499;-65
2023/10/19 02:35:27;;;;;;;19.85;13.13;;;8.20;99.90;;;;;;5050590;28;20052;-65
2023/10/19 02:37:54;;;;;;;21.08;13.73;;;8.30;99.90;;;;;;5033911;28;20040;-65
2023/10/19 02:40:19;;;;;;;17.63;13.90;;;8.30;99.90;;;;;;5049887;28;20079;-65
2023/10/19 02:42:48;;;;;;;18.55;13.00;;;8.30;99.90;;;;;;5070112;28;20129;-65
2023/10/19 02:45:15;;;;;;;19.20;12.93;;;8.30;99.90;;;;;;5068634;28;20382;-65
2023/10/19 02:47:43;;;;;;;16.25;12.07;;;8.30;99.90;;;;;;5080053;28;20475;-66
2023/10/19 02:50:13;;;;;;;16.60;11.68;;;8.30;99.90;;;;;;5080480;28;20058;-65
2023/10/19 02:52:40;;;;;;;18.45;11.93;;;8.20;99.90;;;;;;5068651;28;20060;-65
2023/10/19 02:55:07;;;;;;;14.98;11.32;;;8.30;99.90;;;;;;5071700;28;20120;-65
2023/10/19 02:57:33;;;;;;;15.88;10.63;;;8.30;99.90;;;;;;5074406;28;20083;-65
2023/10/19 02:59:59;;;;;;;14.88;10.88;;;8.30;99.90;;;;;;5057863;28;20543;-65
2023/10/19 03:02:26;;;;;;;13.95;9.65;;;8.30;99.90;;;;;;5057667;28;20036;-65
2023/10/19 03:04:55;;;;;;;14.55;10.30;;;8.30;99.90;;;;;;5053812;28;20082;-64
2023/10/19 03:07:20;;;;;;;11.77;9.27;;;8.30;99.90;;;;;;5053980;28;20128;-64
2023/10/19 03:09:49;;;;;;;13.63;8.80;;;8.30;99.90;;;;;;5054062;28;20423;-64
2023/10/19 03:12:15;;;;;;;13.05;9.52;;;8.30;99.90;;;;;;5069763;28;20029;-65
2023/10/19 03:14:47;;;;;;;15.35;10.38;;;8.40;99.90;;;;;;5056624;28;20033;-65
2023/10/19 03:17:13;;;;;;;14.65;9.93;;;8.30;99.90;;;;;;5074170;28;20080;-66
2023/10/19 03:19:38;;;;;;;13.30;9.30;;;8.30;99.90;;;;;;5065806;28;20076;-65
2023/10/19 03:22:06;;;;;;;12.77;9.23;;;8.30;99.90;;;;;;5067424;28;20075;-65
2023/10/19 03:24:35;;;;;;;12.93;9.13;;;8.40;99.90;;;;;;5074209;28;20397;-65
2023/10/19 03:27:12;;;;;;;11.13;7.82;;;8.30;99.90;;;;;;5074145;28;20504;-65
2023/10/19 03:29:39;;;;;;;10.45;8.10;;;8.30;99.90;;;;;;5073178;28;20059;-66
2023/10/19 03:32:08;;;;;;;11.07;7.55;;;8.30;99.90;;;;;;5043032;28;20084;-66
2023/10/19 03:34:35;;;;;;;11.75;8.57;;;8.30;99.90;;;;;;5036848;28;20585;-66
2023/10/19 03:37:14;;;;;;;12.48;8.80;;;8.40;99.90;;;;;;5053412;28;20567;-65
2023/10/19 03:39:40;;;;;;;12.70;8.75;;;8.40;99.90;;;;;;5054577;28;20060;-65
2023/10/19 03:42:06;;;;;;;11.18;7.50;;;8.40;99.90;;;;;;5060435;28;20044;-66
2023/10/19 03:45:13;;;;;;;13.63;9.05;;;8.40;99.90;;;;;;5052959;28;20091;-66
2023/10/19 03:47:33;;;;;;;10.63;7.68;;;8.40;99.90;;;;;;5067478;28;20048;-66
2023/10/19 03:50:03;;;;;;;11.60;8.23;;;8.30;99.90;;;;;;5073416;28;20048;-66
2023/10/19 03:52:31;;;;;;;12.88;7.53;;;8.40;99.90;;;;;;5072380;28;20583;-66
2023/10/19 03:54:57;;;;;;;11.10;7.90;;;8.40;99.90;;;;;;5073335;28;20524;-66
2023/10/19 03:57:24;;;;;;;10.50;8.00;;;8.40;99.90;;;;;;5072989;28;20048;-66
2023/10/19 03:59:56;;;;;;;12.13;7.22;;;8.40;99.90;;;;;;5072918;28;20046;-66
2023/10/19 04:02:23;;;;;;;10.27;7.07;;;8.50;99.90;;;;;;5072842;28;20043;-65
2023/10/19 04:04:49;;;;;;;11.55;7.20;;;8.40;99.90;;;;;;5072323;28;20056;-65
2023/10/19 04:07:21;;;;;;;9.77;6.32;;;8.40;99.90;;;;;;5072082;28;20048;-65
2023/10/19 04:09:57;;;;;;;12.00;7.10;;;8.50;99.90;;;;;;5073275;28;20117;-66
2023/10/19 04:12:28;;;;;;;9.02;6.47;;;8.40;99.90;;;;;;5071665;28;20401;-65
2023/10/19 04:14:56;;;;;;;10.80;6.50;;;8.40;99.90;;;;;;5073446;28;20131;-66
2023/10/19 04:17:23;;;;;;;10.07;7.15;;;8.50;99.90;;;;;;5074188;28;20052;-65
2023/10/19 04:19:51;;;;;;;9.90;6.90;;;8.50;99.90;;;;;;5072600;28;20044;-65
2023/10/19 04:22:23;;;;;;;9.93;7.63;;;8.50;99.90;;;;;;5071959;28;20041;-65
2023/10/19 04:24:52;;;;;;;9.63;6.38;;;8.40;99.90;;;;;;5055386;28;20048;-65
2023/10/19 04:27:21;;;;;;;10.60;7.20;;;8.50;99.90;;;;;;5055928;28;20051;-65
2023/10/19 04:29:49;;;;;;;10.50;6.93;;;8.50;99.90;;;;;;5072479;28;20389;-65
2023/10/19 04:32:18;;;;;;;10.98;7.90;;;8.50;99.90;;;;;;5043822;28;20401;-65
2023/10/19 04:34:44;;;;;;;10.35;6.93;;;8.50;99.90;;;;;;5052661;28;20044;-65
2023/10/19 04:37:12;;;;;;;10.23;6.97;;;8.50;99.90;;;;;;5052587;28;20406;-65
2023/10/19 04:39:38;;;;;;;9.68;6.38;;;8.60;99.90;;;;;;5053712;28;20112;-65
2023/10/19 04:42:04;;;;;;;10.65;7.63;;;8.50;99.90;;;;;;5078538;28;20116;-65
2023/10/19 04:44:30;;;;;;;10.70;7.75;;;8.50;99.90;;;;;;5072836;28;20036;-65
2023/10/19 04:46:57;;;;;;;11.25;8.65;;;8.60;99.90;;;;;;5072188;28;20528;-65
2023/10/19 04:49:22;;;;;;;12.63;9.20;;;8.60;99.90;;;;;;5055543;28;20437;-65
2023/10/19 04:51:48;;;;;;;9.75;6.53;;;8.50;99.90;;;;;;5070374;28;20045;-65
2023/10/19 04:54:14;;;;;;;11.57;8.30;;;8.60;99.90;;;;;;5035501;28;20045;-67
2023/10/19 04:56:39;;;;;;;10.77;7.68;;;8.60;99.90;;;;;;5051783;28;20529;-66
2023/10/19 04:59:06;;;;;;;9.23;7.03;;;8.60;99.90;;;;;;5037088;28;20051;-67
2023/10/19 05:01:34;;;;;;;11.38;8.15;;;8.60;99.90;;;;;;5071778;28;20389;-66
2023/10/19 05:04:00;;;;;;;11.65;7.78;;;8.70;99.90;;;;;;5071973;28;20064;-66
2023/10/19 05:06:26;;;;;;;10.32;7.75;;;8.70;99.90;;;;;;5071999;28;20086;-67
2023/10/19 05:08:54;;;;;;;8.32;5.97;;;8.70;99.90;;;;;;5071446;28;20036;-66
2023/10/19 05:11:20;;;;;;;13.88;11.23;;;8.70;99.90;;;;;;5051770;28;20044;-66
2023/10/19 05:13:46;;;;;;;10.45;7.55;;;8.60;99.90;;;;;;5059430;28;20033;-66
2023/10/19 05:16:11;;;;;;;9.50;6.72;;;8.70;99.90;;;;;;5053127;28;20071;-66
2023/10/19 05:18:37;;;;;;;8.85;6.65;;;8.70;99.90;;;;;;5070394;28;20036;-67
2023/10/19 05:21:03;;;;;;;12.10;7.93;;;8.70;99.90;;;;;;5053875;28;20123;-66
2023/10/19 05:23:30;;;;;;;9.40;6.78;;;8.70;99.90;;;;;;5051437;28;20049;-67
2023/10/19 05:26:04;;;;;;;9.48;6.50;;;8.70;99.90;;;;;;5052833;28;20121;-67
2023/10/19 05:28:30;;;;;;;9.13;6.78;;;8.70;99.90;;;;;;5050699;28;20067;-67
2023/10/19 05:30:56;;;;;;;12.10;8.05;;;8.70;99.90;;;;;;5067529;28;20044;-67
2023/10/19 05:33:23;;;;;;;11.90;7.22;;;8.70;99.90;;;;;;5054286;28;20044;-66
2023/10/19 05:35:49;;;;;;;9.02;5.97;;;8.70;99.90;;;;;;5070162;28;20103;-66
2023/10/19 05:38:15;;;;;;;8.13;5.18;;;8.70;99.90;;;;;;5069381;28;20048;-66
2023/10/19 05:40:43;;;;;;;7.82;5.47;;;8.70;99.90;;;;;;5070748;28;20044;-66
2023/10/19 05:43:09;;;;;;;7.72;5.20;;;8.70;99.90;;;;;;5070776;28;20040;-66
2023/10/19 05:45:36;;;;;;;8.73;6.00;;;8.70;99.90;;;;;;5071155;28;20044;-65
2023/10/19 05:48:06;;;;;;;9.77;7.53;;;8.80;99.90;;;;;;5070822;28;20388;-66
2023/10/19 05:50:33;;;;;;;11.65;9.00;;;8.80;99.90;;;;;;5070227;28;20381;-66
2023/10/19 05:52:59;;;;;;;8.23;5.80;;;8.70;99.90;;;;;;5072192;28;20131;-65
2023/10/19 05:55:25;;;;;;;9.38;7.18;;;8.70;99.90;;;;;;5070946;28;20382;-65
2023/10/19 05:57:51;;;;;;;8.27;5.88;;;8.70;99.90;;;;;;5057777;28;20043;-65
2023/10/19 06:00:20;;;;;;;10.00;7.30;;;8.80;99.90;;;;;;5057942;28;20060;-65
2023/10/19 06:02:48;;;;;;;8.98;6.38;;;8.70;99.90;;;;;;5050939;28;20493;-65
2023/10/19 06:05:15;;;;;;;8.63;6.00;;;8.80;99.90;;;;;;5050150;28;20490;-65
2023/10/19 06:07:42;;;;;;;8.90;6.55;;;8.80;99.90;;;;;;5050804;28;20468;-65
2023/10/19 06:10:15;;;;;;;8.07;5.25;;;8.70;99.90;;;;;;5055662;28;20040;-65
2023/10/19 06:12:44;;;;;;;8.15;5.53;;;8.80;99.90;;;;;;5060309;28;20574;-64
2023/10/19 06:15:11;;;;;;;8.60;5.53;;;8.90;99.90;;;;;;5050383;28;20041;-65
2023/10/19 06:17:41;;;;;;;8.35;5.80;;;8.80;99.90;;;;;;5050318;28;20119;-64
2023/10/19 06:20:23;;;;;;;8.93;5.82;;;8.80;99.90;;;;;;5055390;28;20485;-64
2023/10/19 06:23:03;;;;;;;8.38;5.75;;;8.90;99.90;;;;;;5070171;28;20457;-64
2023/10/19 06:25:29;;;;;;;8.15;5.60;;;8.90;99.90;;;;;;5053160;28;20102;-64
2023/10/19 06:27:57;;;;;;;9.05;5.95;;;8.80;99.90;;;;;;5070703;28;20401;-64
2023/10/19 06:30:25;;;;;;;8.32;5.53;;;8.80;99.90;;;;;;5065922;28;20044;-64
2023/10/19 06:32:55;;;;;;;7.63;5.47;;;8.80;99.90;;;;;;5062177;28;20040;-64
2023/10/19 06:35:22;;;;;;;7.68;5.57;;;8.80;99.90;;;;;;5064980;28;20049;-64
2023/10/19 06:37:48;;;;;;;8.52;5.57;;;8.80;99.90;;;;;;5083596;28;20084;-64
2023/10/19 06:40:16;;;;;;;7.95;5.65;;;8.80;99.90;;;;;;5049920;28;20079;-63
2023/10/19 06:42:43;;;;;;;8.25;5.10;;;8.80;99.90;;;;;;5050331;28;20094;-63
2023/10/19 06:45:13;;;;;;;9.77;7.13;;;8.80;99.90;;;;;;5055105;28;20048;-63
2023/10/19 06:47:42;;;;;;;7.75;5.40;;;8.70;99.90;;;;;;5056316;28;20385;-64
2023/10/19 06:50:10;;;;;;;9.00;6.18;;;8.80;99.90;;;;;;5054311;28;20072;-63
2023/10/19 06:52:36;;;;;;;8.68;5.85;;;8.80;99.90;;;;;;5078634;28;20072;-63
2023/10/19 06:55:13;;;;;;;8.70;5.90;;;8.80;99.90;;;;;;5061287;28;20067;-63
2023/10/19 06:57:45;;;;;;;7.10;5.13;;;8.80;99.90;;;;;;5036871;28;20044;-63
2023/10/19 07:00:16;;;;;;;7.93;4.70;;;8.80;99.90;;;;;;5053244;28;20045;-63
2023/10/19 07:02:45;;;;;;;7.30;4.65;;;8.80;99.90;;;;;;5050815;28;20075;-63
2023/10/19 07:05:13;;;;;;;7.10;4.57;;;8.80;99.90;;;;;;5028002;28;20064;-62
2023/10/19 07:07:42;;;;;;;6.70;4.10;;;8.80;99.90;;;;;;5062287;28;20056;-62
2023/10/19 07:10:11;;;;;;;6.82;4.22;;;8.80;99.90;;;;;;5061364;28;20049;-63
2023/10/19 07:12:37;;;;;;;7.40;4.55;;;8.80;99.90;;;;;;5046774;28;20045;-63
2023/10/19 07:15:07;;;;;;;6.75;3.90;;;8.90;99.90;;;;;;5047683;28;20080;-63
2023/10/19 07:17:37;;;;;;;6.40;3.80;;;8.80;99.90;;;;;;5047563;28;20064;-62
2023/10/19 07:20:06;;;;;;;8.45;3.92;;;8.90;99.90;;;;;;5029857;28;20580;-63
2023/10/19 07:22:32;;;;;;;5.82;3.53;;;8.80;99.90;;;;;;5046881;28;20053;-63
2023/10/19 07:24:59;;;;;;;6.22;4.05;;;8.90;99.90;;;;;;5071022;28;20045;-63
2023/10/19 07:27:28;;;;;;;6.55;4.15;;;8.90;99.90;;;;;;5063872;28;20474;-63
2023/10/19 07:29:53;;;;;;;6.03;3.60;;;8.80;99.90;;;;;;5047601;28;20502;-63
2023/10/19 07:32:19;;;;;;;6.85;3.80;;;8.80;99.90;;;;;;5056929;28;20067;-62
2023/10/19 07:34:45;;;;;;;6.38;3.90;;;8.90;99.90;;;;;;5066513;28;20048;-62
2023/10/19 07:37:17;;;;;;;6.70;4.20;;;8.90;99.90;;;;;;5045711;28;20045;-64
2023/10/19 07:39:50;;;;;;;6.55;4.47;;;8.90;99.90;;;;;;5045881;28;20067;-64
2023/10/19 07:42:16;;;;;;;5.82;3.72;;;9.00;99.90;;;;;;5065050;28;20571;-63
2023/10/19 07:44:42;;;;;;;5.70;3.78;;;8.90;99.90;;;;;;5050079;28;20103;-63
2023/10/19 07:47:09;;;;;;;6.18;4.20;;;9.00;99.90;;;;;;5066926;28;20044;-63
2023/10/19 07:49:39;;;;;;;6.32;3.92;;;9.00;99.90;;;;;;5065522;28;20073;-63
2023/10/19 07:52:08;;;;;;;6.22;4.22;;;8.90;99.90;;;;;;5033192;28;20501;-63
2023/10/19 07:54:35;;;;;;;6.22;4.15;;;8.90;99.90;;;;;;5083523;28;20059;-63
2023/10/19 07:57:05;;;;;;;6.47;4.20;;;9.00;99.90;;;;;;5084052;28;20044;-63
2023/10/19 07:59:34;;;;;;;6.28;4.32;;;9.00;99.90;;;;;;5060868;28;20045;-63
2023/10/19 08:02:02;;;;;;;6.72;4.90;;;9.00;99.90;;;;;;5050143;28;20044;-63
2023/10/19 08:04:28;;;;;;;8.27;5.45;;;8.90;99.90;;;;;;5049496;28;20045;-62
2023/10/19 08:06:55;;;;;;;14.70;9.77;;;9.00;99.90;;;;;;5050366;28;20090;-62
2023/10/19 08:09:31;;;;;;;24.85;15.68;;;9.10;99.90;;;;;;5050455;28;20095;-62
2023/10/19 08:11:58;;;;;;;15.15;9.40;;;9.10;99.90;;;;;;5083698;28;20049;-63
2023/10/19 08:14:25;;;;;;;10.93;6.80;;;9.10;99.90;;;;;;5039734;28;20058;-62
2023/10/19 08:16:52;;;;;;;22.08;12.80;;;9.10;99.90;;;;;;5077770;28;20045;-62
2023/10/19 08:19:18;;;;;;;12.65;6.22;;;9.00;99.90;;;;;;5066768;28;20037;-63
2023/10/19 08:21:44;;;;;;;14.95;8.70;;;9.00;99.90;;;;;;5051936;28;20518;-63
2023/10/19 08:24:13;;;;;;;36.85;22.00;;;9.10;99.90;;;;;;5048980;28;20045;-63
2023/10/19 08:26:42;;;;;;;19.58;11.00;;;9.10;99.90;;;;;;5053149;28;20048;-63
2023/10/19 08:29:12;;;;;;;17.00;11.07;;;9.10;99.90;;;;;;5084344;28;20086;-63
2023/10/19 08:31:42;;;;;;;11.40;6.22;;;9.10;99.90;;;;;;5058977;28;20124;-63
2023/10/19 08:34:11;;;;;;;20.52;10.32;;;9.20;99.90;;;;;;5096566;28;20051;-63
2023/10/19 08:36:39;;;;;;;43.65;19.83;;;9.20;99.90;;;;;;5072738;28;20040;-63
2023/10/19 08:39:07;;;;;;;38.50;19.02;;;9.20;99.90;;;;;;5072339;28;20037;-62
2023/10/19 08:41:37;;;;;;;38.13;16.45;;;9.20;99.90;;;;;;5071590;28;20489;-66
2023/10/19 08:44:15;;;;;;;38.58;17.95;;;9.20;99.90;;;;;;5072891;28;20119;-66
2023/10/19 08:46:47;;;;;;;47.70;22.90;;;9.30;99.90;;;;;;5065501;28;20041;-66
2023/10/19 08:49:14;;;;;;;11.18;6.65;;;9.20;99.90;;;;;;5056725;28;20050;-66
2023/10/19 08:51:45;;;;;;;11.10;7.35;;;9.30;99.90;;;;;;5061208;28;20056;-66
2023/10/19 08:54:15;;;;;;;10.52;7.75;;;9.30;99.90;;;;;;5038533;28;20508;-66
2023/10/19 08:56:41;;;;;;;13.45;8.05;;;9.40;99.90;;;;;;5052015;28;20060;-66
2023/10/19 08:59:11;;;;;;;8.27;5.50;;;9.30;99.90;;;;;;5085016;28;20120;-66
2023/10/19 09:01:38;;;;;;;16.95;11.60;;;9.30;99.90;;;;;;5063159;28;20082;-66
2023/10/19 09:04:05;;;;;;;9.65;6.18;;;9.30;99.90;;;;;;5053592;28;20044;-66
2023/10/19 09:06:41;;;;;;;9.63;6.78;;;9.40;99.90;;;;;;5058645;28;20049;-66
2023/10/19 09:09:25;;;;;;;12.07;7.88;;;9.40;99.90;;;;;;5066686;28;20036;-66
2023/10/19 09:11:54;;;;;;;11.55;7.13;;;9.40;99.90;;;;;;5062615;28;20029;-66
2023/10/19 09:14:36;;;;;;;8.57;5.13;;;9.50;99.90;;;;;;5062823;28;20108;-66
2023/10/19 09:17:03;;;;;;;12.48;8.40;;;9.50;99.90;;;;;;5052981;28;20039;-66
2023/10/19 09:19:40;;;;;;;11.10;7.78;;;9.40;99.90;;;;;;5071428;28;20048;-66
2023/10/19 09:22:16;;;;;;;13.25;8.70;;;9.40;99.90;;;;;;5053213;28;20029;-66
2023/10/19 09:24:43;;;;;;;10.18;6.15;;;9.40;99.90;;;;;;5054410;28;20040;-64
2023/10/19 09:27:09;;;;;;;8.13;5.65;;;9.40;99.90;;;;;;5056510;28;20495;-66
2023/10/19 09:29:34;;;;;;;10.10;6.68;;;9.50;99.90;;;;;;5052849;28;20044;-66
2023/10/19 09:32:03;;;;;;;10.02;6.25;;;9.50;99.90;;;;;;5051374;28;20049;-66
2023/10/19 09:34:33;;;;;;;17.55;12.35;;;9.40;99.90;;;;;;5074174;28;20097;-66
2023/10/19 09:37:03;;;;;;;17.67;12.07;;;9.50;99.90;;;;;;5071090;28;20045;-66
2023/10/19 09:39:35;;;;;;;33.47;23.52;;;9.50;99.90;;;;;;5063209;28;20045;-66
2023/10/19 09:42:11;;;;;;;20.60;14.05;;;9.50;99.90;;;;;;5055508;28;20532;-66
2023/10/19 09:44:45;;;;;;;12.15;7.20;;;9.40;99.90;;;;;;5071516;28;20520;-66
2023/10/19 09:47:12;;;;;;;12.70;8.63;;;9.40;99.90;;;;;;5059264;28;20078;-66
2023/10/19 09:49:40;;;;;;;12.90;7.63;;;9.60;99.90;;;;;;5058692;28;20283;-66
2023/10/19 09:52:08;;;;;;;11.68;7.60;;;9.50;99.90;;;;;;5053364;28;20516;-67
2023/10/19 09:54:47;;;;;;;11.20;7.70;;;9.60;99.90;;;;;;5081803;28;20406;-66
2023/10/19 09:57:18;;;;;;;11.88;8.75;;;9.60;99.90;;;;;;5046095;28;20119;-66
2023/10/19 09:59:49;;;;;;;13.95;8.63;;;9.60;99.90;;;;;;5055723;28;20033;-66
2023/10/19 10:02:17;;;;;;;12.98;8.23;;;9.60;99.90;;;;;;5036849;28;20421;-66
2023/10/19 10:04:47;;;;;;;12.35;7.53;;;9.70;99.90;;;;;;5052741;28;20067;-66
2023/10/19 10:07:13;;;;;;;10.73;7.38;;;9.60;99.90;;;;;;5063182;28;20489;-66
2023/10/19 10:09:43;;;;;;;11.90;7.53;;;9.70;99.90;;;;;;5066577;28;20053;-66
2023/10/19 10:12:23;;;;;;;12.60;7.80;;;9.70;99.90;;;;;;5060064;28;20104;-66
2023/10/19 10:14:57;;;;;;;15.95;9.77;;;9.70;99.90;;;;;;5055830;28;20704;-66
2023/10/19 10:17:25;;;;;;;12.33;7.90;;;9.80;99.90;;;;;;5036174;28;20478;-66
2023/10/19 10:19:56;;;;;;;16.60;10.45;;;9.80;99.90;;;;;;5062779;28;20104;-66
2023/10/19 10:22:22;;;;;;;12.80;8.73;;;9.80;99.90;;;;;;5060021;28;20051;-66
2023/10/19 10:24:57;;;;;;;20.05;13.10;;;9.80;99.90;;;;;;5061519;28;20056;-66
2023/10/19 10:27:23;;;;;;;16.73;10.35;;;9.80;99.90;;;;;;5079523;28;20127;-66
2023/10/19 10:30:01;;;;;;;13.30;8.05;;;9.90;99.90;;;;;;5048217;28;20132;-67
2023/10/19 10:32:47;;;;;;;18.88;12.05;;;10.00;99.90;;;;;;5066071;28;20091;-66
2023/10/19 10:35:52;;;;;;;11.07;8.65;;;10.00;99.90;;;;;;5040804;28;20044;-66
2023/10/19 10:38:18;;;;;;;14.38;9.38;;;10.00;99.90;;;;;;5051651;28;20127;-66
2023/10/19 10:40:45;;;;;;;13.90;8.15;;;10.00;99.90;;;;;;5038931;28;20449;-65
2023/10/19 10:43:12;;;;;;;15.85;11.07;;;10.10;99.90;;;;;;5053943;28;20458;-66
2023/10/19 10:45:37;;;;;;;15.13;10.50;;;10.10;99.90;;;;;;5050398;28;20045;-64
2023/10/19 10:48:03;;;;;;;14.10;10.10;;;10.10;99.90;;;;;;5035029;28;20099;-65
2023/10/19 10:50:29;;;;;;;16.02;10.50;;;10.10;99.90;;;;;;5051696;28;20079;-65
2023/10/19 10:52:57;;;;;;;18.48;12.73;;;10.10;99.90;;;;;;5052921;28;20084;-65
2023/10/19 10:55:27;;;;;;;13.75;10.18;;;10.20;99.90;;;;;;5057642;28;20044;-65
2023/10/19 10:57:54;;;;;;;12.07;7.95;;;10.20;99.90;;;;;;5061252;28;20033;-65
2023/10/19 11:00:22;;;;;;;13.52;9.90;;;10.10;99.90;;;;;;5053965;28;20029;-65
2023/10/19 11:03:07;;;;;;;15.60;9.60;;;10.10;99.90;;;;;;5100621;28;20049;-64
2023/10/19 11:05:35;;;;;;;25.47;16.90;;;10.10;99.90;;;;;;5050901;28;20394;-65
2023/10/19 11:08:13;;;;;;;17.60;13.50;;;10.20;99.90;;;;;;5083605;28;20076;-65
2023/10/19 11:10:42;;;;;;;11.68;7.97;;;10.10;99.90;;;;;;5051378;28;20493;-65
2023/10/19 11:13:10;;;;;;;11.20;7.53;;;10.10;99.90;;;;;;5049672;28;20037;-65
2023/10/19 11:15:37;;;;;;;13.25;9.40;;;10.10;99.90;;;;;;5050540;28;20437;-65
2023/10/19 11:18:04;;;;;;;17.35;14.38;;;10.10;99.90;;;;;;5054228;28;20072;-65
2023/10/19 11:20:30;;;;;;;11.90;9.43;;;10.10;99.90;;;;;;5065230;28;20177;-65
2023/10/19 11:22:57;;;;;;;12.93;8.82;;;10.10;99.90;;;;;;5073739;28;20514;-65
2023/10/19 11:25:30;;;;;;;13.25;8.70;;;10.20;99.90;;;;;;5059001;28;20068;-64
2023/10/19 11:28:00;;;;;;;13.60;7.88;;;10.20;99.90;;;;;;5036445;28;20510;-65
2023/10/19 11:30:28;;;;;;;11.40;8.32;;;10.10;99.90;;;;;;5056749;28;20067;-64
2023/10/19 11:32:57;;;;;;;12.43;8.65;;;10.20;99.90;;;;;;5066002;28;20041;-64
2023/10/19 11:35:30;;;;;;;11.05;7.95;;;10.30;99.90;;;;;;5053463;28;20045;-64
2023/10/19 11:38:02;;;;;;;10.65;7.88;;;10.30;99.90;;;;;;5040546;28;20064;-64
2023/10/19 11:40:27;;;;;;;11.60;8.45;;;10.20;99.90;;;;;;5068773;28;20053;-64
2023/10/19 11:42:58;;;;;;;13.77;8.25;;;10.30;99.90;;;;;;5066570;28;20044;-64
2023/10/19 11:45:28;;;;;;;11.63;7.70;;;10.30;99.90;;;;;;5051013;28;20059;-65
2023/10/19 11:47:55;;;;;;;11.15;7.28;;;10.40;99.90;;;;;;5069020;28;20080;-64
2023/10/19 11:50:20;;;;;;;11.57;8.65;;;10.20;99.90;;;;;;5062491;28;20044;-63
2023/10/19 11:52:46;;;;;;;11.55;8.23;;;10.30;99.90;;;;;;5056957;28;20135;-64
2023/10/19 11:55:15;;;;;;;12.02;8.63;;;10.30;99.90;;;;;;5065169;28;20041;-64
2023/10/19 11:57:43;;;;;;;9.65;7.32;;;10.30;99.90;;;;;;5057352;28;20068;-64
2023/10/19 12:00:23;;;;;;;11.02;7.38;;;10.30;99.90;;;;;;5052662;28;20270;-64
2023/10/19 12:02:49;;;;;;;14.40;9.15;;;10.20;99.90;;;;;;5051755;28;20059;-64
2023/10/19 12:05:15;;;;;;;14.35;9.63;;;10.20;99.90;;;;;;5053555;28;20036;-64
2023/10/19 12:07:41;;;;;;;14.45;8.95;;;10.20;99.90;;;;;;5052693;28;20049;-64
2023/10/19 12:10:09;;;;;;;14.75;9.30;;;10.20;99.90;;;;;;5052081;28;20051;-64
2023/10/19 12:12:36;;;;;;;13.10;9.02;;;10.30;99.90;;;;;;5057206;28;20052;-64
2023/10/19 12:15:02;;;;;;;13.23;8.70;;;10.30;99.90;;;;;;5067256;28;20045;-64
2023/10/19 12:17:30;;;;;;;12.52;8.57;;;10.30;99.90;;;;;;5062490;28;20041;-64
2023/10/19 12:19:56;;;;;;;10.98;8.10;;;10.30;99.90;;;;;;5038807;28;20538;-64
2023/10/19 12:22:22;;;;;;;13.70;8.10;;;10.30;99.90;;;;;;5054025;28;20037;-64
2023/10/19 12:24:48;;;;;;;10.00;7.63;;;10.30;99.90;;;;;;5057678;28;20048;-64
2023/10/19 12:27:14;;;;;;;9.90;7.55;;;10.30;99.90;;;;;;5052990;28;20076;-64
2023/10/19 12:29:40;;;;;;;10.45;7.75;;;10.20;99.90;;;;;;5053068;28;20445;-64
2023/10/19 12:32:06;;;;;;;11.05;7.30;;;10.30;99.90;;;;;;5061084;28;20120;-64
2023/10/19 12:34:33;;;;;;;8.43;6.45;;;10.20;99.90;;;;;;5070834;28;20041;-63
2023/10/19 12:36:59;;;;;;;10.70;6.75;;;10.20;99.90;;;;;;5062704;28;20044;-63
2023/10/19 12:39:44;;;;;;;8.65;5.80;;;10.20;99.90;;;;;;5059233;28;20147;-64
2023/10/19 12:42:10;;;;;;;11.32;7.80;;;10.20;99.90;;;;;;5057766;28;20049;-64
2023/10/19 12:44:39;;;;;;;17.98;10.80;;;10.10;99.90;;;;;;5053356;28;20052;-64
2023/10/19 12:47:10;;;;;;;23.98;14.70;;;10.20;99.90;;;;;;5071569;28;20036;-64
2023/10/19 12:49:46;;;;;;;19.95;13.93;;;10.20;99.90;;;;;;5067990;28;20055;-64
2023/10/19 12:52:11;;;;;;;13.27;9.43;;;10.10;99.90;;;;;;5025958;28;20057;-63
2023/10/19 12:54:37;;;;;;;9.38;7.18;;;10.10;99.90;;;;;;5051828;28;20064;-64
2023/10/19 12:57:07;;;;;;;11.70;7.43;;;10.10;99.90;;;;;;5056604;28;20040;-64
2023/10/19 12:59:39;;;;;;;9.45;6.07;;;10.10;99.90;;;;;;5056898;28;20045;-63
2023/10/19 13:02:08;;;;;;;12.18;8.43;;;10.00;99.90;;;;;;5052299;28;20044;-64
2023/10/19 13:04:34;;;;;;;9.05;6.32;;;10.10;99.90;;;;;;5052247;28;20053;-64